Time;durP1;ratioP1;P1;durP2;ratioP2;P2;SDS_P1;SDS_P2;PMS_P1;PMS_P2;Temp;Humidity;BMP_temperature;BMP_pressure;BME280_temperature;BME280_humidity;BME280_pressure;Samples;Min_cycle;Max_cycle;Signal;HPM_P1;HPM_P2
2024/04/19 00:01:38;;;;;;;5.65;1.77;;;;;;;5.85;100.00;101480.19;5531233;25;20314;-76
2024/04/19 00:04:04;;;;;;;10.55;2.42;;;;;;;5.82;100.00;101470.66;5531257;25;19989;-76
2024/04/19 00:06:29;;;;;;;9.18;2.30;;;;;;;5.82;100.00;101465.38;5564015;25;20038;-82
2024/04/19 00:08:55;;;;;;;14.02;2.38;;;;;;;5.80;100.00;101475.19;5564684;25;20004;-77
2024/04/19 00:11:20;;;;;;;9.13;2.33;;;;;;;5.79;100.00;101457.66;5531378;25;20038;-78
2024/04/19 00:13:46;;;;;;;16.27;2.20;;;;;;;5.80;100.00;101458.50;5563941;25;19996;-78
2024/04/19 00:16:12;;;;;;;14.20;2.28;;;;;;;5.80;100.00;101440.00;5564166;25;20392;-77
2024/04/19 00:18:37;;;;;;;11.13;2.35;;;;;;;5.81;100.00;101445.19;5563743;25;19996;-77
2024/04/19 00:21:03;;;;;;;7.78;2.53;;;;;;;5.80;100.00;101443.47;5563735;25;20003;-76
2024/04/19 00:23:28;;;;;;;17.70;2.90;;;;;;;5.79;100.00;101447.09;5563787;25;20289;-77
2024/04/19 00:25:54;;;;;;;8.82;2.35;;;;;;;5.80;100.00;101432.09;5563958;25;20064;-77
2024/04/19 00:28:19;;;;;;;13.63;1.95;;;;;;;5.81;100.00;101425.88;5531462;25;20004;-78
2024/04/19 00:30:44;;;;;;;13.75;2.40;;;;;;;5.79;100.00;101420.69;5530750;25;19993;-77
2024/04/19 00:33:10;;;;;;;19.00;2.47;;;;;;;5.80;100.00;101410.97;5563490;25;20461;-75
2024/04/19 00:35:36;;;;;;;13.68;2.78;;;;;;;5.80;100.00;101403.03;5563212;25;20068;-77
2024/04/19 00:38:01;;;;;;;16.92;2.90;;;;;;;5.82;100.00;101414.34;5563426;25;20016;-76
2024/04/19 00:40:27;;;;;;;11.75;2.33;;;;;;;5.82;100.00;101409.06;5563469;25;20056;-77
2024/04/19 00:42:53;;;;;;;11.20;3.00;;;;;;;5.82;100.00;101395.84;5563247;25;19993;-77
2024/04/19 00:45:37;;;;;;;14.02;2.75;;;;;;;5.82;100.00;101390.56;5531091;25;19989;-77
2024/04/19 00:48:15;;;;;;;9.63;2.40;;;;;;;5.82;100.00;101388.81;5564522;25;19993;-77
2024/04/19 00:50:43;;;;;;;8.68;2.58;;;;;;;5.85;100.00;101382.47;5564643;25;20020;-76
2024/04/19 00:53:09;;;;;;;8.75;2.30;;;;;;;5.87;100.00;101382.38;5569140;25;20008;-76
2024/04/19 00:55:35;;;;;;;11.30;2.70;;;;;;;5.83;100.00;101382.56;5533318;25;20081;-76
2024/04/19 00:58:01;;;;;;;13.52;2.85;;;;;;;5.86;100.00;101367.47;5567131;25;19997;-77
2024/04/19 01:00:26;;;;;;;15.05;2.65;;;;;;;5.87;100.00;101364.75;5565576;25;20004;-76
2024/04/19 01:02:53;;;;;;;8.50;2.83;;;;;;;5.88;100.00;101374.38;5566698;25;20033;-78
2024/04/19 01:05:19;;;;;;;15.82;2.80;;;;;;;5.90;100.00;101367.19;5567006;25;19993;-76
2024/04/19 01:07:44;;;;;;;12.50;3.15;;;;;;;5.93;100.00;101350.31;5566161;25;20004;-76
2024/04/19 01:10:10;;;;;;;12.50;3.00;;;;;;;5.95;100.00;101348.41;5566553;25;19996;-78
2024/04/19 01:12:35;;;;;;;16.33;3.22;;;;;;;5.95;100.00;101346.59;5566358;25;19997;-77
2024/04/19 01:15:01;;;;;;;17.45;3.35;;;;;;;6.00;100.00;101352.50;5566166;25;20325;-77
2024/04/19 01:17:26;;;;;;;11.30;2.90;;;;;;;6.02;100.00;101336.56;5534046;25;20068;-77
2024/04/19 01:19:51;;;;;;;14.73;2.88;;;;;;;6.07;100.00;101323.03;5566410;25;20004;-76
2024/04/19 01:22:17;;;;;;;16.40;3.63;;;;;;;6.10;100.00;101320.19;5533569;25;20000;-78
2024/04/19 01:24:46;;;;;;;11.45;3.88;;;;;;;6.11;100.00;101320.09;5566487;25;20081;-76
2024/04/19 01:27:12;;;;;;;11.82;3.58;;;;;;;6.15;100.00;101321.63;5566677;25;19993;-78
2024/04/19 01:29:37;;;;;;;10.27;3.13;;;;;;;6.20;100.00;101316.03;5566375;25;20056;-76
2024/04/19 01:32:03;;;;;;;8.95;3.10;;;;;;;6.22;100.00;101306.19;5565654;25;20000;-76
2024/04/19 01:34:29;;;;;;;10.60;3.20;;;;;;;6.25;100.00;101305.16;5533877;25;20075;-76
2024/04/19 01:36:55;;;;;;;16.35;3.78;;;;;;;6.25;100.00;101281.38;5566609;25;20061;-79
2024/04/19 01:39:20;;;;;;;16.00;3.35;;;;;;;6.27;100.00;101287.41;5566230;25;20001;-77
2024/04/19 01:41:46;;;;;;;13.02;3.08;;;;;;;6.26;100.00;101283.06;5566270;25;19996;-76
2024/04/19 01:44:12;;;;;;;15.55;3.47;;;;;;;6.30;100.00;101271.34;5566280;25;20441;-77
2024/04/19 01:46:37;;;;;;;18.73;3.40;;;;;;;6.33;100.00;101289.66;5565861;25;20007;-77
2024/04/19 01:49:03;;;;;;;16.80;3.65;;;;;;;6.35;100.00;101262.16;5566144;25;19997;-76
2024/04/19 01:51:28;;;;;;;12.10;3.40;;;;;;;6.40;100.00;101279.53;5566243;25;19993;-80
2024/04/19 01:53:53;;;;;;;18.05;4.28;;;;;;;6.39;100.00;101268.09;5566331;25;19992;-78
2024/04/19 01:56:19;;;;;;;10.70;3.15;;;;;;;6.42;100.00;101269.69;5566095;25;20013;-77
2024/04/19 01:58:44;;;;;;;11.57;3.58;;;;;;;6.44;100.00;101262.50;5566272;25;20302;-77
2024/04/19 02:01:09;;;;;;;13.25;3.38;;;;;;;6.47;100.00;101257.03;5565711;25;19993;-78
2024/04/19 02:03:37;;;;;;;11.13;3.80;;;;;;;6.50;100.00;101246.25;5565887;25;20328;-84
2024/04/19 02:06:12;;;;;;;11.02;3.80;;;;;;;6.53;100.00;101251.31;5565225;25;20504;-78
2024/04/19 02:08:38;;;;;;;16.63;4.43;;;;;;;6.57;100.00;101257.25;5566665;25;19995;-79
2024/04/19 02:11:04;;;;;;;16.60;3.75;;;;;;;6.58;100.00;101235.97;5565717;25;20349;-76
2024/04/19 02:13:30;;;;;;;15.77;3.88;;;;;;;6.63;100.00;101233.06;5566301;25;20074;-83
2024/04/19 02:15:56;;;;;;;16.98;3.67;;;;;;;6.66;100.00;101227.56;5565585;25;20001;-79
2024/04/19 02:18:21;;;;;;;16.02;3.72;;;;;;;6.69;100.00;101207.03;5533886;25;20405;-79
2024/04/19 02:20:47;;;;;;;17.48;4.35;;;;;;;6.73;100.00;101209.47;5532787;25;20000;-80
2024/04/19 02:23:12;;;;;;;10.70;3.85;;;;;;;6.76;100.00;101209.25;5565413;25;20460;-78
2024/04/19 02:25:37;;;;;;;13.38;4.28;;;;;;;6.78;100.00;101200.25;5565462;25;20000;-85
2024/04/19 02:30:55;;;;;;;19.27;5.22;;;;;;;6.82;100.00;101204.41;5566463;25;20149;-81
2024/04/19 02:33:21;;;;;;;14.05;5.30;;;;;;;6.85;100.00;101201.53;5566024;25;20007;-86
2024/04/19 02:35:47;;;;;;;11.95;5.63;;;;;;;6.88;100.00;101203.09;5502203;25;20417;-78
2024/04/19 02:38:12;;;;;;;18.70;6.25;;;;;;;6.90;100.00;101198.56;5565708;25;20002;-79
2024/04/19 02:40:38;;;;;;;15.18;6.32;;;;;;;6.91;100.00;101196.75;5565959;25;20007;-80
2024/04/19 02:43:03;;;;;;;23.45;7.70;;;;;;;6.93;100.00;101198.34;5565481;25;19988;-81
2024/04/19 02:45:29;;;;;;;21.00;7.53;;;;;;;6.98;100.00;101188.28;5565505;25;20366;-84
2024/04/19 02:47:54;;;;;;;19.75;8.20;;;;;;;6.97;100.00;101177.81;5565079;25;20008;-85
2024/04/19 02:50:19;;;;;;;21.08;7.93;;;;;;;7.02;100.00;101183.63;5565032;25;20004;-83
2024/04/19 02:52:44;;;;;;;21.52;7.80;;;;;;;7.03;100.00;101166.78;5565416;25;20004;-82
2024/04/19 02:55:10;;;;;;;19.83;8.40;;;;;;;7.06;100.00;101171.88;5564931;25;20421;-84
2024/04/19 02:57:35;;;;;;;26.55;8.30;;;;;;;7.09;100.00;101173.47;5532971;25;20464;-84
2024/04/19 03:00:02;;;;;;;22.67;8.82;;;;;;;7.11;100.00;101171.56;5565622;25;20377;-79
2024/04/19 03:02:27;;;;;;;25.15;9.00;;;;;;;7.10;100.00;101169.88;5565181;25;20447;-79
2024/04/19 03:04:53;;;;;;;26.20;9.10;;;;;;;7.11;100.00;101164.47;5565080;25;19993;-80
2024/04/19 03:07:18;;;;;;;30.20;10.48;;;;;;;7.15;100.00;101162.44;5564835;25;20312;-84
2024/04/19 03:09:46;;;;;;;28.83;9.02;;;;;;;7.18;100.00;101156.91;5564892;25;20017;-80
2024/04/19 03:12:12;;;;;;;25.40;9.65;;;;;;;7.20;100.00;101158.50;5565070;25;20008;-82
2024/04/19 03:14:37;;;;;;;27.35;9.70;;;;;;;7.21;100.00;101146.13;5564917;25;20336;-87
2024/04/19 03:17:03;;;;;;;29.20;9.55;;;;;;;7.26;100.00;101153.75;5564851;25;19993;-83
2024/04/19 03:19:28;;;;;;;39.00;10.45;;;;;;;7.26;100.00;101143.16;5532414;25;20361;-82
2024/04/19 03:21:53;;;;;;;19.55;9.32;;;;;;;7.27;100.00;101136.91;5564893;25;20008;-84
2024/04/19 03:24:19;;;;;;;30.83;10.05;;;;;;;7.31;100.00;101141.84;5563769;25;19996;-84
2024/04/19 03:26:46;;;;;;;28.48;10.07;;;;;;;7.32;100.00;101134.78;5564688;25;20436;-85
2024/04/19 03:29:11;;;;;;;25.70;9.25;;;;;;;7.32;100.00;101127.69;5501317;25;20469;-81
2024/04/19 03:31:37;;;;;;;21.30;8.32;;;;;;;7.33;100.00;101113.50;5565095;25;19997;-81
2024/04/19 03:34:02;;;;;;;38.33;9.98;;;;;;;7.36;100.00;101117.69;5564755;25;20008;-80
2024/04/19 03:36:27;;;;;;;24.10;9.38;;;;;;;7.37;100.00;101117.59;5564512;25;20004;-80
2024/04/19 03:38:53;;;;;;;28.30;9.02;;;;;;;7.39;100.00;101120.16;5564315;25;20432;-78
2024/04/19 03:41:18;;;;;;;25.15;8.75;;;;;;;7.41;100.00;101108.47;5564728;25;20068;-81
2024/04/19 03:45:40;;;;;;;25.95;8.38;;;;;;;7.43;100.00;101113.66;5565048;25;19997;-80
2024/04/19 03:46:29;;;;;;;29.42;8.95;;;;;;;7.46;100.00;101109.94;5564757;25;19993;-81
2024/04/19 03:48:54;;;;;;;30.73;8.32;;;;;;;7.46;100.00;101115.25;5564678;25;20007;-79
2024/04/19 03:51:20;;;;;;;20.92;7.35;;;;;;;7.51;100.00;101113.94;5564608;25;19997;-78
2024/04/19 03:53:45;;;;;;;21.20;8.10;;;;;;;7.51;100.00;101116.59;5564644;25;20000;-81
2024/04/19 03:56:10;;;;;;;24.10;7.80;;;;;;;7.51;100.00;101110.44;5565143;25;20023;-79
2024/04/19 03:58:36;;;;;;;24.33;7.72;;;;;;;7.52;100.00;101107.69;5564580;25;20012;-78
2024/04/19 04:01:07;;;;;;;27.92;8.45;;;;;;;7.53;100.00;101101.44;5565235;25;20383;-80
2024/04/19 04:03:32;;;;;;;25.83;8.25;;;;;;;7.55;100.00;101101.31;5564353;25;19997;-79
2024/04/19 04:05:57;;;;;;;30.15;9.23;;;;;;;7.57;100.00;101102.06;5531825;25;20008;-82
2024/04/19 04:08:23;;;;;;;20.30;7.68;;;;;;;7.58;100.00;101086.06;5564659;25;20360;-80
2024/04/19 04:10:48;;;;;;;27.80;8.15;;;;;;;7.59;100.00;101097.50;5563882;25;20448;-79
2024/04/19 04:13:14;;;;;;;27.20;8.32;;;;;;;7.60;100.00;101096.53;5564029;25;19992;-81
2024/04/19 04:15:41;;;;;;;25.88;7.78;;;;;;;7.58;100.00;101088.72;5564648;25;20073;-85
2024/04/19 04:18:06;;;;;;;26.83;9.00;;;;;;;7.63;100.00;101088.38;5563668;25;20011;-80
2024/04/19 04:20:31;;;;;;;21.88;7.30;;;;;;;7.64;100.00;101081.25;5531379;25;19997;-79
2024/04/19 04:22:57;;;;;;;18.20;6.80;;;;;;;7.66;100.00;101076.69;5563802;25;19996;-81
2024/04/19 04:25:22;;;;;;;24.98;6.95;;;;;;;7.68;100.00;101077.44;5530570;25;20004;-79
2024/04/19 04:27:47;;;;;;;24.15;7.10;;;;;;;7.68;100.00;101069.47;5564180;25;20410;-78
2024/04/19 04:30:13;;;;;;;28.85;6.80;;;;;;;7.69;100.00;101071.19;5530887;25;20380;-79
2024/04/19 04:32:38;;;;;;;24.50;7.60;;;;;;;7.67;100.00;101063.31;5563913;25;20084;-79
2024/04/19 04:35:04;;;;;;;22.35;6.50;;;;;;;7.71;100.00;101080.69;5563141;25;19997;-82
2024/04/19 04:37:34;;;;;;;22.73;6.82;;;;;;;7.72;100.00;101063.00;5563266;25;19996;-77
2024/04/19 04:39:59;;;;;;;30.15;6.78;;;;;;;7.73;100.00;101064.69;5563647;25;20386;-78
2024/04/19 04:42:24;;;;;;;18.48;5.85;;;;;;;7.76;100.00;101070.59;5563740;25;20001;-78
2024/04/19 04:44:50;;;;;;;21.83;5.93;;;;;;;7.79;100.00;101068.69;5563513;25;20012;-78
2024/04/19 04:47:15;;;;;;;23.05;6.60;;;;;;;7.82;100.00;101068.44;5563743;25;20110;-80
2024/04/19 04:49:40;;;;;;;28.23;6.43;;;;;;;7.84;100.00;101069.19;5562989;25;20009;-79
2024/04/19 04:52:06;;;;;;;22.70;5.57;;;;;;;7.87;100.00;101076.91;5563168;25;20068;-78
2024/04/19 04:54:32;;;;;;;19.42;6.00;;;;;;;7.88;100.00;101067.97;5530485;25;20274;-82
2024/04/19 04:56:57;;;;;;;22.98;5.68;;;;;;;7.85;100.00;101074.38;5530737;25;19996;-80
2024/04/19 04:59:22;;;;;;;18.13;4.75;;;;;;;7.84;100.00;101077.97;5530662;25;20008;-81
2024/04/19 05:01:48;;;;;;;25.20;5.93;;;;;;;7.83;100.00;101078.91;5530238;25;20040;-80
2024/04/19 05:04:13;;;;;;;22.33;6.20;;;;;;;7.81;100.00;101069.41;5563293;25;20000;-79
2024/04/19 05:06:38;;;;;;;20.23;4.97;;;;;;;7.83;100.00;101073.63;5563332;25;20436;-81
2024/04/19 05:09:04;;;;;;;23.60;6.18;;;;;;;7.82;100.00;101077.22;5562945;25;19994;-84
2024/04/19 05:11:29;;;;;;;24.23;4.95;;;;;;;7.82;100.00;101066.63;5562763;25;19997;-82
2024/04/19 05:13:54;;;;;;;16.95;4.40;;;;;;;7.84;100.00;101062.06;5562798;25;20004;-80
2024/04/19 05:16:20;;;;;;;20.08;4.75;;;;;;;7.84;100.00;101069.19;5562761;25;20011;-80
2024/04/19 05:18:45;;;;;;;20.40;4.47;;;;;;;7.81;100.00;101064.97;5562812;25;19992;-82
2024/04/19 05:21:10;;;;;;;27.75;4.40;;;;;;;7.81;100.00;101064.97;5531769;25;20339;-84
2024/04/19 05:23:37;;;;;;;26.60;5.50;;;;;;;7.80;100.00;101073.03;5529930;25;20005;-82
2024/04/19 05:26:03;;;;;;;23.50;4.35;;;;;;;7.81;100.00;101072.03;5530271;25;19992;-80
2024/04/19 05:28:28;;;;;;;29.35;4.53;;;;;;;7.82;100.00;101071.94;5562853;25;20004;-80
2024/04/19 05:30:53;;;;;;;16.52;3.83;;;;;;;7.83;100.00;101068.31;5562366;25;20007;-80
2024/04/19 05:33:19;;;;;;;29.65;4.63;;;;;;;7.84;100.00;101069.19;5561683;25;20460;-78
2024/04/19 05:35:44;;;;;;;23.23;4.80;;;;;;;7.85;100.00;101073.50;5562329;25;19992;-80
2024/04/19 05:38:10;;;;;;;28.40;4.72;;;;;;;7.85;100.00;101070.84;5529488;25;19997;-79
2024/04/19 05:40:35;;;;;;;21.95;4.80;;;;;;;7.86;100.00;101068.09;5528944;25;20314;-80
2024/04/19 05:43:01;;;;;;;25.92;4.75;;;;;;;7.89;100.00;101069.69;5562037;25;20000;-78
2024/04/19 05:45:26;;;;;;;36.85;5.80;;;;;;;7.89;100.00;101067.03;5562324;25;19997;-83
2024/04/19 05:47:52;;;;;;;23.38;4.75;;;;;;;7.88;100.00;101063.53;5564379;25;20037;-81
2024/04/19 05:50:17;;;;;;;14.10;4.63;;;;;;;7.88;100.00;101066.19;5566483;25;20429;-79
2024/04/19 05:52:43;;;;;;;27.80;4.63;;;;;;;7.90;100.00;101055.47;5566258;25;19993;-80
2024/04/19 05:55:09;;;;;;;19.92;3.85;;;;;;;7.88;100.00;101062.69;5566133;25;19993;-80
2024/04/19 05:57:34;;;;;;;19.55;4.50;;;;;;;7.90;100.00;101064.25;5566412;25;20011;-82
2024/04/19 06:00:00;;;;;;;20.23;4.40;;;;;;;7.90;100.00;101053.66;5566684;25;20000;-79
2024/04/19 06:02:26;;;;;;;24.20;4.45;;;;;;;7.92;100.00;101062.31;5566697;25;20108;-82
2024/04/19 06:04:51;;;;;;;25.75;4.75;;;;;;;7.94;100.00;101060.41;5566045;25;20447;-80
2024/04/19 06:07:21;;;;;;;20.10;3.38;;;;;;;7.98;100.00;101058.38;5565626;25;19996;-82
2024/04/19 06:09:46;;;;;;;27.27;3.70;;;;;;;8.01;100.00;101055.47;5565614;25;19993;-87
2024/04/19 06:12:11;;;;;;;32.08;4.00;;;;;;;8.03;100.00;101058.00;5566108;25;20004;-79
2024/04/19 06:14:37;;;;;;;22.10;4.55;;;;;;;8.05;100.00;101050.81;5566303;25;19993;-83
2024/04/19 06:17:02;;;;;;;18.90;4.20;;;;;;;8.05;100.00;101054.28;5533280;25;19996;-79
2024/04/19 06:19:28;;;;;;;28.67;4.95;;;;;;;8.06;100.00;101045.41;5566536;25;19993;-80
2024/04/19 06:21:53;;;;;;;19.38;3.53;;;;;;;8.09;100.00;101039.00;5565808;25;19992;-82
2024/04/19 06:24:19;;;;;;;17.38;3.47;;;;;;;8.17;100.00;101049.88;5565785;25;20417;-79
2024/04/19 06:26:45;;;;;;;20.35;3.58;;;;;;;8.17;100.00;101046.38;5565765;25;19993;-84
2024/04/19 06:29:10;;;;;;;20.42;2.92;;;;;;;8.16;100.00;101047.34;5565914;25;20056;-80
2024/04/19 06:31:35;;;;;;;12.65;2.85;;;;;;;8.11;100.00;101053.00;5532599;25;19997;-79
2024/04/19 06:34:01;;;;;;;17.27;3.70;;;;;;;8.08;100.00;101050.56;5532799;25;19997;-78
2024/04/19 06:36:26;;;;;;;21.65;4.18;;;;;;;8.03;100.00;101045.63;5566668;25;20405;-83
2024/04/19 06:38:52;;;;;;;15.07;3.05;;;;;;;8.03;100.00;101048.28;5565591;25;20000;-82
2024/04/19 06:41:17;;;;;;;16.05;3.10;;;;;;;8.00;100.00;101037.91;5565650;25;19992;-79
2024/04/19 06:43:42;;;;;;;24.10;3.83;;;;;;;8.04;100.00;101044.66;5565627;25;19992;-79
2024/04/19 06:46:08;;;;;;;17.65;3.40;;;;;;;8.09;100.00;101037.22;5565476;25;19992;-81
2024/04/19 06:48:33;;;;;;;13.35;2.67;;;;;;;8.09;100.00;101023.97;5532323;25;19993;-80
2024/04/19 06:50:58;;;;;;;13.23;2.80;;;;;;;8.11;100.00;101032.63;5565469;25;20029;-81
2024/04/19 06:53:24;;;;;;;13.52;2.80;;;;;;;8.15;100.00;101032.38;5565251;25;20136;-80
2024/04/19 06:55:49;;;;;;;17.83;2.78;;;;;;;8.23;100.00;101025.53;5566318;25;20503;-76
2024/04/19 06:58:14;;;;;;;17.98;2.60;;;;;;;8.29;100.00;101017.09;5564727;25;19993;-77
2024/04/19 07:00:40;;;;;;;15.13;2.35;;;;;;;8.39;100.00;101019.00;5531193;25;19992;-80
2024/04/19 07:03:05;;;;;;;10.18;2.42;;;;;;;8.46;100.00;101017.59;5532052;25;20000;-80
2024/04/19 07:05:31;;;;;;;10.07;1.98;;;;;;;8.49;100.00;101011.22;5565800;25;19993;-84
2024/04/19 07:07:57;;;;;;;22.02;2.97;;;;;;;8.53;100.00;101002.06;5565737;25;20150;-77
2024/04/19 07:10:22;;;;;;;16.05;2.60;;;;;;;8.57;100.00;101003.50;5534157;25;19989;-78
2024/04/19 07:12:51;;;;;;;11.35;2.22;;;;;;;8.55;100.00;101003.63;5534300;25;19992;-77
2024/04/19 07:15:17;;;;;;;13.13;2.85;;;;;;;8.52;100.00;100998.56;5567355;25;20073;-78
2024/04/19 07:17:43;;;;;;;15.05;2.55;;;;;;;8.54;100.00;101004.59;5567848;25;20660;-79
2024/04/19 07:20:09;;;;;;;17.60;3.30;;;;;;;8.53;100.00;101004.72;5566003;25;19996;-75
2024/04/19 07:22:35;;;;;;;14.40;2.95;;;;;;;8.50;100.00;101011.09;5566960;25;19993;-76
2024/04/19 07:25:01;;;;;;;15.35;2.70;;;;;;;8.49;100.00;100997.97;5564484;25;20000;-79
2024/04/19 07:27:27;;;;;;;20.35;3.13;;;;;;;8.45;100.00;101000.88;5564623;25;20449;-76
2024/04/19 07:29:54;;;;;;;17.90;2.97;;;;;;;8.43;100.00;100997.47;5531418;25;20063;-76
2024/04/19 07:32:20;;;;;;;12.43;3.45;;;;;;;8.41;100.00;101006.50;5564283;25;19997;-77
2024/04/19 07:34:46;;;;;;;15.70;3.22;;;;;;;8.38;100.00;101004.09;5565219;25;19999;-78
2024/04/19 07:37:11;;;;;;;22.70;2.60;;;;;;;8.38;100.00;100999.63;5564477;25;19996;-77
2024/04/19 07:39:37;;;;;;;25.63;3.42;;;;;;;8.44;100.00;100998.34;5564226;25;20072;-77
2024/04/19 07:42:02;;;;;;;16.35;2.60;;;;;;;8.49;100.00;100998.81;5564499;25;20001;-76
2024/04/19 07:44:28;;;;;;;13.07;2.45;;;;;;;8.51;100.00;101003.97;5564673;25;20003;-79
2024/04/19 07:46:53;;;;;;;10.15;2.38;;;;;;;8.44;100.00;101007.13;5564348;25;19997;-82
2024/04/19 07:49:18;;;;;;;14.45;2.50;;;;;;;8.28;100.00;100996.00;5564804;25;20429;-79
2024/04/19 07:51:44;;;;;;;15.82;2.90;;;;;;;8.18;100.00;100997.69;5564662;25;20421;-79
2024/04/19 07:54:09;;;;;;;15.23;2.88;;;;;;;8.23;100.00;100992.88;5564399;25;20305;-76
2024/04/19 07:56:34;;;;;;;16.13;2.60;;;;;;;8.37;100.00;100991.78;5564850;25;19992;-77
2024/04/19 07:59:00;;;;;;;15.85;2.55;;;;;;;8.49;100.00;100992.66;5563798;25;20024;-76
2024/04/19 08:01:25;;;;;;;16.83;2.40;;;;;;;8.59;100.00;100990.97;5531118;25;19992;-76
2024/04/19 08:03:51;;;;;;;16.10;2.88;;;;;;;8.73;100.00;100990.72;5564257;25;20000;-75
2024/04/19 08:06:16;;;;;;;16.15;3.33;;;;;;;8.85;100.00;100998.63;5564026;25;20038;-79
2024/04/19 08:08:41;;;;;;;12.77;3.17;;;;;;;8.88;100.00;100999.22;5563871;25;20313;-79
2024/04/19 08:11:07;;;;;;;16.33;2.38;;;;;;;8.81;100.00;100995.41;5563187;25;19992;-77
2024/04/19 08:13:32;;;;;;;11.93;2.60;;;;;;;8.89;100.00;101005.38;5563625;25;20005;-75
2024/04/19 08:15:58;;;;;;;16.27;2.55;;;;;;;9.03;100.00;100991.00;5563723;25;19993;-77
2024/04/19 08:18:23;;;;;;;11.00;2.15;;;;;;;9.24;100.00;100985.72;5530638;25;19993;-78
2024/04/19 08:20:49;;;;;;;19.25;3.20;;;;;;;9.27;100.00;100998.75;5563749;25;20004;-77
2024/04/19 08:23:14;;;;;;;11.88;2.47;;;;;;;9.31;100.00;100990.41;5563561;25;20312;-78
2024/04/19 08:25:39;;;;;;;18.05;2.80;;;;;;;9.28;100.00;101006.59;5530764;25;20377;-78
2024/04/19 08:28:05;;;;;;;15.70;3.22;;;;;;;9.35;100.00;101005.13;5563787;25;20005;-78
2024/04/19 08:30:30;;;;;;;17.58;3.33;;;;;;;9.35;100.00;101002.47;5563199;25;19993;-79
2024/04/19 08:32:57;;;;;;;16.95;3.22;;;;;;;9.52;100.00;101001.06;5563042;25;19993;-75
2024/04/19 08:35:23;;;;;;;22.50;3.03;;;;;;;9.68;100.00;101002.44;5563471;25;20060;-76
2024/04/19 08:37:48;;;;;;;10.13;2.38;;;;;;;9.65;100.00;101008.84;5563305;25;20004;-79
2024/04/19 08:40:14;;;;;;;17.67;3.35;;;;;;;9.58;100.00;100998.84;5563324;25;20443;-82
2024/04/19 08:42:39;;;;;;;14.98;2.60;;;;;;;9.53;100.00;100999.25;5530079;25;20150;-75
2024/04/19 08:45:06;;;;;;;21.73;3.60;;;;;;;9.55;100.00;100999.13;5563019;25;19992;-78
2024/04/19 08:47:35;;;;;;;17.10;2.78;;;;;;;9.61;100.00;101006.56;5563158;25;19993;-80
2024/04/19 08:50:03;;;;;;;20.38;3.00;;;;;;;9.61;100.00;101012.72;5562775;25;20494;-76
2024/04/19 08:52:29;;;;;;;16.42;2.80;;;;;;;9.69;100.00;101009.44;5563004;25;19999;-79
2024/04/19 08:54:57;;;;;;;11.52;2.53;;;;;;;9.76;100.00;101007.94;5563157;25;19993;-76
2024/04/19 08:57:23;;;;;;;15.40;2.60;;;;;;;9.93;100.00;101008.31;5563279;25;20025;-75
2024/04/19 08:59:50;;;;;;;16.20;2.90;;;;;;;9.92;100.00;101006.66;5562809;25;20310;-76
2024/04/19 09:02:15;;;;;;;19.92;2.47;;;;;;;10.17;100.00;101014.19;5563145;25;20012;-76
2024/04/19 09:04:40;;;;;;;19.90;2.58;;;;;;;10.10;100.00;101010.38;5563786;25;20421;-77
2024/04/19 09:07:06;;;;;;;21.20;3.03;;;;;;;10.24;100.00;101009.22;5563723;25;19997;-77
2024/04/19 09:09:32;;;;;;;17.58;3.05;;;;;;;10.18;100.00;101013.22;5563367;25;20345;-78
2024/04/19 09:11:57;;;;;;;15.57;2.95;;;;;;;10.15;100.00;101018.81;5562980;25;20000;-80
2024/04/19 09:14:23;;;;;;;12.57;2.40;;;;;;;10.04;100.00;101027.69;5563018;25;19996;-78
2024/04/19 09:16:48;;;;;;;19.45;2.70;;;;;;;10.18;100.00;101015.03;5530192;25;20000;-82
2024/04/19 09:19:15;;;;;;;12.27;2.85;;;;;;;10.52;100.00;101026.28;5529541;25;19997;-77
2024/04/19 09:21:40;;;;;;;19.38;2.30;;;;;;;10.72;100.00;101021.03;5562619;25;19997;-77
2024/04/19 09:24:09;;;;;;;13.00;2.85;;;;;;;10.78;100.00;101025.81;5566687;25;20101;-79
2024/04/19 09:26:34;;;;;;;14.02;2.78;;;;;;;10.93;100.00;101013.78;5566662;25;20008;-79
2024/04/19 09:29:00;;;;;;;18.80;3.17;;;;;;;10.86;100.00;101035.78;5565989;25;19993;-79
2024/04/19 09:31:26;;;;;;;13.68;2.47;;;;;;;11.07;100.00;101019.72;5533212;25;20008;-78
2024/04/19 09:33:54;;;;;;;15.73;3.17;;;;;;;11.00;100.00;101021.22;5533314;25;20001;-77
2024/04/19 09:36:20;;;;;;;14.32;2.28;;;;;;;10.66;100.00;101033.06;5566467;25;20432;-76
2024/04/19 09:38:46;;;;;;;13.07;2.70;;;;;;;10.27;100.00;101022.22;5533720;25;19996;-79
2024/04/19 09:41:16;;;;;;;14.38;3.15;;;;;;;10.11;100.00;101028.03;5533295;25;20357;-83
2024/04/19 09:43:48;;;;;;;14.38;2.42;;;;;;;10.27;100.00;101029.34;5566694;25;20008;-77
2024/04/19 09:46:19;;;;;;;12.25;1.90;;;;;;;10.46;100.00;101032.13;5533609;25;20025;-77
2024/04/19 09:48:47;;;;;;;14.18;2.72;;;;;;;10.53;100.00;101033.28;5566674;25;19992;-79
2024/04/19 09:51:15;;;;;;;9.75;2.35;;;;;;;10.55;100.00;101041.13;5566017;25;19997;-79
2024/04/19 09:53:44;;;;;;;18.90;2.97;;;;;;;10.45;100.00;101032.25;5566206;25;20071;-79
2024/04/19 09:56:12;;;;;;;20.38;2.22;;;;;;;10.30;100.00;101032.59;5566351;25;20065;-76
2024/04/19 09:58:38;;;;;;;16.42;3.28;;;;;;;10.19;100.00;101046.81;5566000;25;20005;-83
2024/04/19 10:01:04;;;;;;;11.68;2.40;;;;;;;10.22;100.00;101040.38;5565981;25;20000;-80
2024/04/19 10:03:30;;;;;;;15.43;2.85;;;;;;;10.01;100.00;101035.09;5566250;25;20012;-77
2024/04/19 10:05:57;;;;;;;16.50;2.28;;;;;;;9.78;100.00;101029.06;5565687;25;19996;-79
2024/04/19 10:08:27;;;;;;;11.48;2.72;;;;;;;9.88;100.00;101041.47;5566044;25;20008;-83
2024/04/19 10:10:53;;;;;;;21.00;2.90;;;;;;;10.10;100.00;101049.44;5502761;25;19993;-83
2024/04/19 10:13:19;;;;;;;14.48;2.58;;;;;;;10.37;100.00;101043.56;5565859;25;20705;-82
2024/04/19 10:15:48;;;;;;;24.33;2.85;;;;;;;11.09;100.00;101044.38;5566093;25;20033;-81
2024/04/19 10:18:13;;;;;;;17.70;3.15;;;;;;;11.97;100.00;101055.06;5565990;25;20028;-81
2024/04/19 10:20:40;;;;;;;23.58;3.25;;;;;;;11.92;100.00;101058.13;5566103;25;20004;-81
2024/04/19 10:23:06;;;;;;;17.73;2.95;;;;;;;11.40;100.00;101049.59;5565666;25;20353;-84
2024/04/19 10:25:38;;;;;;;9.80;2.50;;;;;;;11.32;100.00;101044.13;5565455;25;20005;-80
2024/04/19 10:28:08;;;;;;;16.10;2.70;;;;;;;11.62;100.00;101043.97;5565685;25;19993;-83
2024/04/19 10:30:34;;;;;;;15.82;2.78;;;;;;;11.66;100.00;101039.22;5565382;25;19996;-79
2024/04/19 10:32:59;;;;;;;21.70;3.35;;;;;;;11.56;100.00;101044.56;5565304;25;19993;-80
2024/04/19 10:35:25;;;;;;;15.98;2.50;;;;;;;11.07;100.00;101046.34;5533337;25;20068;-81
2024/04/19 10:37:50;;;;;;;10.32;2.35;;;;;;;11.04;100.00;101041.28;5565824;25;20007;-77
2024/04/19 10:40:16;;;;;;;15.07;2.70;;;;;;;11.07;100.00;101046.34;5565226;25;20003;-77
2024/04/19 10:42:41;;;;;;;23.02;3.78;;;;;;;11.11;100.00;101047.75;5566156;25;20005;-76
2024/04/19 10:45:14;;;;;;;15.23;2.38;;;;;;;11.06;100.00;101045.50;5565836;25;19997;-81
2024/04/19 10:47:43;;;;;;;18.02;3.22;;;;;;;11.27;100.00;101049.84;5565300;25;19997;-85
2024/04/19 10:50:09;;;;;;;21.35;2.88;;;;;;;11.23;100.00;101046.63;5565621;25;20127;-78
2024/04/19 10:52:37;;;;;;;12.38;2.42;;;;;;;10.51;100.00;101061.84;5565400;25;20003;-80
2024/04/19 10:55:04;;;;;;;23.30;3.22;;;;;;;9.75;100.00;101051.44;5565463;25;19992;-78
2024/04/19 10:57:30;;;;;;;17.38;2.70;;;;;;;9.30;100.00;101052.47;5532383;25;20309;-77
2024/04/19 10:59:55;;;;;;;19.30;2.83;;;;;;;9.09;100.00;101059.50;5565746;25;20072;-75
2024/04/19 11:02:25;;;;;;;14.48;2.88;;;;;;;9.01;100.00;101057.47;5565036;25;20005;-74
2024/04/19 11:04:51;;;;;;;19.60;3.83;;;;;;;8.99;100.00;101068.22;5565095;25;20000;-76
2024/04/19 11:07:16;;;;;;;14.90;2.45;;;;;;;9.31;100.00;101061.25;5564889;25;20313;-76
2024/04/19 11:09:41;;;;;;;10.10;2.30;;;;;;;9.58;100.00;101068.75;5564894;25;20008;-80
2024/04/19 11:12:07;;;;;;;14.70;2.30;;;;;;;9.95;100.00;101067.53;5565455;25;20004;-77
2024/04/19 11:14:33;;;;;;;14.18;2.47;;;;;;;10.35;100.00;101074.78;5565231;25;19997;-77